Kezdőlap
METAR-TAF:

METAR-TAF

Repülőterek :

Pécs, Magyarország

földrajzi szélesség: 46-06N, földrajzi hosszúság: 018-14E, magasság: 201 m

Jelenlegi meteorológiai megfigyelések

A jelentés 10 órával és 32 perccel ezelõtt készült, 14:45 UTC
Keleti szél 7 kt
Hőmérséklet 0°C
Páratartalom 93%
Légköri nyomás 1010 hPa
Látótávolság: 4000 m
Borult 1600 lábon
enyhe havazás

METAR: LHPP 201445Z 08007KT 4000 -SN OVC016 M00/M01 Q1010

Idő: 02:17 (01:17 UTC)

Előrejelzés

A jelentés 11 órával és 2 perccel ezelõtt készült, 14:15 UTC
Az előrejelzés 20-én 15 óra UTC és 20-én 24 óra UTC között érvényes
Keleti szél 10 kt
Látótávolság: 5000 m
Borult 2000 lábon
enyhe havazás, Párásság
20-én 15 óra UTC és 20-én 18 óra UTC között ideiglenes
Látótávolság: 1500 m
Borult 800 lábon

TAF: LHPP 201415Z 2015/2024 08010KT 5000 -SN BR OVC020 TEMPO 2015/2018 1500 SN OVC008

Meteorológiai megfigyelések és előrejelzések több, mint 4000 repülőtéren (METAR és TAF jelentéseket).

A térképen piros és sárga pontok jelzik az elérhető meteorológiai állomásokat.

Mozgassa az egeret a pont fölött, hogy megjelenjen az állomás neve.

Azután kattintson az időjárási megfigyelések és előrejelzések megtekintéséhez.

A térkép megváltoztatása: kattintson a fekete keresztel jelölt zöld gombra ráközelítéshez, a vonallal jelölt zöld gombra távolításhoz, vagy a zöld nyilakra a szomszédos térképek eléréséhez.


METAR-TAF: